Hyundai No.107 — A8CT4 — position and weather

sailwx.info

Track history (hours):
 
Tides and Currents Weather Stations Pressure Air Temp Water Temp Dewpoint Dewpoint Depression Visibility Wind Speed Wind Dir Waves Ship Positions

Hyundai No.107

Last reported at 2017-Apr-24 10:55 UTC. Time now 2017-May-25 12:16 UTC.
Position N 46°12' W 125°25'.
Warning: this ship's position is 31 days out of date.

Length 184 m; draft 7.6 m.

Type: Cargo ship. MMSI: 636011980.

Date/timePositionNaut miles runAvg speedWind from/ knotsBaromVisibWave heightAir tempDewpointWater temp
2017-Apr-24 10:55N 46°12' W 125°25'614.0
2017-Apr-24 10:30N 46°12' W 125°16'713.8
2017-Apr-24 09:59N 46°12' W 125°06'713.8
2017-Apr-24 09:30N 46°12' W 124°57'713.5
2017-Apr-24 09:00N 46°12' W 124°47'713.4
2017-Apr-24 08:30N 46°12' W 124°37'713.2
2017-Apr-24 08:01N 46°12' W 124°28'713.3
2017-Apr-24 07:30N 46°12' W 124°18'612.1
2017-Apr-24 07:01N 46°12' W 124°09'612.0
2017-Apr-24 06:31N 46°16' W 124°02'713.2
2017-Apr-24 06:00N 46°11' W 123°55'4 8.9
2017-Apr-24 05:30N 46°12' W 123°49'510.6
2017-Apr-24 05:01N 46°15' W 123°42'714.7
2017-Apr-24 04:30N 46°16' W 123°31'812.2
2017-Apr-24 03:53N 46°10' W 123°25'512.6
2017-Apr-24 03:31N 46°09' W 123°18'816.0
2017-Apr-24 03:00N 46°11' W 123°07'714.5
2017-Apr-24 02:30N 46°07' W 122°58'611.4
2017-Apr-24 02:01N 46°03' W 122°53'612.2
2017-Apr-24 01:31N 45°57' W 122°49'713.4
2017-Apr-24 00:59N 45°50' W 122°47'714.3
2017-Apr-24 00:30N 45°44' W 122°46'5 9.7
2017-Apr-24 00:01N 45°39' W 122°45'0 0.1
2017-Apr-23 23:30N 45°39' W 122°45'0 0.0
2017-Apr-23 22:54N 45°39' W 122°45'0 0.0
2017-Apr-23 22:30N 45°39' W 122°45'0 0.0
2017-Apr-23 22:00N 45°39' W 122°45'0 0.0
2017-Apr-23 20:54N 45°39' W 122°45'0 0.0
2017-Apr-23 20:29N 45°39' W 122°45'0 0.0
2017-Apr-23 19:59N 45°39' W 122°45'0 0.0
2017-Apr-23 19:26N 45°39' W 122°45'0 0.0
2017-Apr-23 18:47N 45°39' W 122°45'0 0.0
2017-Apr-23 18:23N 45°39' W 122°45'0 0.0
2017-Apr-23 17:56N 45°39' W 122°45'0 0.0
2017-Apr-23 17:28N 45°39' W 122°45'0 0.0
2017-Apr-23 16:58N 45°39' W 122°45'0 0.0
2017-Apr-23 16:25N 45°39' W 122°45'0 0.0
2017-Apr-23 15:58N 45°39' W 122°45'0 0.0
2017-Apr-23 15:19N 45°39' W 122°45'0 0.0
2017-Apr-23 14:55N 45°39' W 122°45'0 0.0
2017-Apr-23 13:54N 45°39' W 122°45'0 0.0
2017-Apr-23 13:30N 45°39' W 122°45'0 0.0
2017-Apr-23 12:57N 45°39' W 122°45'0 0.0
2017-Apr-23 12:30N 45°39' W 122°45'0 0.0
2017-Apr-23 12:00N 45°39' W 122°45'0 0.0
2017-Apr-23 11:30N 45°39' W 122°45'0 0.0
2017-Apr-23 10:59N 45°39' W 122°45'0 0.0
2017-Apr-23 10:17N 45°39' W 122°45'0 0.0
2017-Apr-23 09:59N 45°39' W 122°45'0 0.0
2017-Apr-23 09:26N 45°39' W 122°45'0 0.0
2017-Apr-23 08:56N 45°39' W 122°45'0 0.0
2017-Apr-23 08:26N 45°39' W 122°45'0 0.0
2017-Apr-23 07:46N 45°39' W 122°45'0 0.0
2017-Apr-23 07:28N 45°39' W 122°45'0 0.0
2017-Apr-23 06:55N 45°39' W 122°45'0 0.0
2017-Apr-23 06:25N 45°39' W 122°45'0 0.0
2017-Apr-23 05:58N 45°39' W 122°45'0 0.0
2017-Apr-23 05:28N 45°39' W 122°45'0 0.0
2017-Apr-23 04:55N 45°39' W 122°45'0 0.0
2017-Apr-23 04:30N 45°39' W 122°45'0 0.0
2017-Apr-23 04:00N 45°39' W 122°45'0 0.0
2017-Apr-23 03:27N 45°39' W 122°45'0 0.0
2017-Apr-23 02:45N 45°39' W 122°45'0 0.0
2017-Apr-23 02:18N 45°39' W 122°45'0 0.0
2017-Apr-23 02:00N 45°39' W 122°45'0 0.0
2017-Apr-23 01:21N 45°39' W 122°45'1 1.8
2017-Apr-23 01:00N 45°39' W 122°46'4 7.9
2017-Apr-23 00:30N 45°43' W 122°46'611.6
2017-Apr-23 00:00N 45°49' W 122°48'510.0
2017-Apr-22 23:30N 45°54' W 122°48'510.4
2017-Apr-22 23:00N 45°59' W 122°50'5 9.9
2017-Apr-22 22:30N 46°03' W 122°53'510.0
2017-Apr-22 22:00N 46°07' W 122°59'510.8
2017-Apr-22 21:30N 46°10' W 123°05'611.1
2017-Apr-22 21:00N 46°10' W 123°13'612.0
2017-Apr-22 20:30N 46°09' W 123°21'5 9.2
2017-Apr-22 20:00N 46°12' W 123°26'510.7
2017-Apr-22 19:30N 46°16' W 123°30'713.3
2017-Apr-22 19:01N 46°15' W 123°40'611.9
2017-Apr-22 18:31N 46°13' W 123°47'4 8.9
2017-Apr-22 18:00N 46°11' W 123°54'713.3
2017-Apr-22 17:30N 46°15' W 124°01'714.2
2017-Apr-22 17:00N 46°13' W 124°11'611.4
2017-Apr-22 16:30N 46°14' W 124°19'612.8
2017-Apr-22 16:01N 46°20' W 124°22'612.8
2017-Apr-22 15:31N 46°25' W 124°27'5 9.5
2017-Apr-22 15:01N 46°30' W 124°30'0 0.7
2017-Apr-22 14:30N 46°29' W 124°30'1 1.1
2017-Apr-22 13:30N 46°28' W 124°31'0 1.0
2017-Apr-22 13:01N 46°28' W 124°32'0 0.9
2017-Apr-22 12:31N 46°28' W 124°32'1 1.4
2017-Apr-22 12:01N 46°27' W 124°33'1 1.2
2017-Apr-22 11:30N 46°27' W 124°33'1 1.3
2017-Apr-22 11:01N 46°26' W 124°33'1 1.4
2017-Apr-22 10:30N 46°25' W 124°33'1 1.5
2017-Apr-22 10:01N 46°25' W 124°33'1 1.5
2017-Apr-22 09:31N 46°24' W 124°33'1 1.7
2017-Apr-22 09:00N 46°23' W 124°33'1 2.1
2017-Apr-22 08:30N 46°22' W 124°34'1 2.3
2017-Apr-22 08:00N 46°21' W 124°34'1 2.9
2017-Apr-22 07:30N 46°20' W 124°35'1 2.9
2017-Apr-22 07:01N 46°18' W 124°35'1 2.9
2017-Apr-22 06:31N 46°17' W 124°35'1 2.7
2017-Apr-22 06:01N 46°15' W 124°35'1 2.6
2017-Apr-22 05:30N 46°14' W 124°35'1 2.4
2017-Apr-22 05:00N 46°13' W 124°35'1 2.3
2017-Apr-22 04:30N 46°12' W 124°35'1 1.9
2017-Apr-22 04:01N 46°11' W 124°35'1 1.3
2017-Apr-22 03:31N 46°10' W 124°34'0 0.6
2017-Apr-22 03:01N 46°10' W 124°34'2 3.9
2017-Apr-22 02:31N 46°12' W 124°34'612.5
2017-Apr-22 02:01N 46°18' W 124°35'714.4
2017-Apr-22 01:31N 46°26' W 124°37'714.8
2017-Apr-22 01:01N 46°31' W 124°44'714.8
2017-Apr-22 00:31N 46°36' W 124°52'714.6
2017-Apr-22 00:01N 46°41' W 125°00'814.7
2017-Apr-21 23:30N 46°48' W 125°03'714.7
2017-Apr-21 23:00N 46°55' W 125°06'714.7
2017-Apr-21 22:30N 47°02' W 125°08'714.7
2017-Apr-21 22:00N 47°09' W 125°11'6213.9
2017-Apr-21 17:31N 48°11' W 125°19'414.5
2017-Apr-21 17:13N 48°15' W 125°16'314.3
2017-Apr-21 17:00N 48°18' W 125°13'714.4
2017-Apr-21 16:30N 48°24' W 125°08'714.3
2017-Apr-21 16:00N 48°30' W 125°03'714.4
2017-Apr-21 15:30N 48°30' W 124°52'714.6
2017-Apr-21 15:00N 48°30' W 124°41'714.7
2017-Apr-21 14:31N 48°27' W 124°31'1515.1
2017-Apr-21 13:30N 48°21' W 124°10'815.9
2017-Apr-21 13:00N 48°18' W 123°59'815.9
2017-Apr-21 12:30N 48°17' W 123°47'815.9
2017-Apr-21 12:00N 48°15' W 123°35'714.0
2017-Apr-21 11:30N 48°20' W 123°27'510.5
2017-Apr-21 11:00N 48°23' W 123°22'713.3
2017-Apr-21 10:31N 48°25' W 123°12'815.6
2017-Apr-21 10:01N 48°33' W 123°13'714.7
2017-Apr-21 09:30N 48°40' W 123°15'612.5
2017-Apr-21 09:01N 48°44' W 123°08'612.6
2017-Apr-21 08:30N 48°49' W 123°01'815.2
2017-Apr-21 08:00N 48°55' W 123°09'814.8
2017-Apr-21 07:30N 49°00' W 123°17'611.4
2017-Apr-21 07:00N 49°05' W 123°20'4 8.8
2017-Apr-21 06:30N 49°08' W 123°15'5 9.8
2017-Apr-21 06:00N 49°07' W 123°08'2 4.7
2017-Apr-21 05:29N 49°08' W 123°04'0 0.0
2017-Apr-21 04:59N 49°08' W 123°04'0 0.0
2017-Apr-21 04:29N 49°08' W 123°04'0 0.0
2017-Apr-21 03:59N 49°08' W 123°04'0 0.0
2017-Apr-21 03:29N 49°08' W 123°04'0 0.0
2017-Apr-21 02:59N 49°08' W 123°04'0 0.0
2017-Apr-21 02:29N 49°08' W 123°04'0 0.0
2017-Apr-21 01:59N 49°08' W 123°04'0 0.0
2017-Apr-21 01:29N 49°08' W 123°04'0 0.0
2017-Apr-21 00:59N 49°08' W 123°04'0 0.0
2017-Apr-21 00:29N 49°08' W 123°04'0 0.0
2017-Apr-20 23:59N 49°08' W 123°04'0 0.0
2017-Apr-20 23:29N 49°08' W 123°04'0 0.0
2017-Apr-20 22:59N 49°08' W 123°04'0 0.0
2017-Apr-20 22:29N 49°08' W 123°04'0 0.0
2017-Apr-20 21:59N 49°08' W 123°04'0 0.3
2017-Apr-20 21:31N 49°08' W 123°04'3 6.9
2017-Apr-20 21:00N 49°07' W 123°09'5 9.7
2017-Apr-20 20:31N 49°07' W 123°16'4 8.4
2017-Apr-20 20:01N 49°03' W 123°20'611.8
2017-Apr-20 19:30N 48°59' W 123°13'714.3
2017-Apr-20 19:00N 48°54' W 123°05'714.3
2017-Apr-20 18:30N 48°48' W 123°00'714.3
2017-Apr-20 18:00N 48°44' W 123°09'612.3
2017-Apr-20 17:30N 48°39' W 123°15'714.7
2017-Apr-20 17:00N 48°32' W 123°12'713.9
2017-Apr-20 16:31N 48°25' W 123°12'612.6
2017-Apr-20 16:00N 48°22' W 123°20'2 3.5
2017-Apr-20 15:30N 48°20' W 123°21'0 0.6
2017-Apr-20 14:58N 48°21' W 123°21'0 0.0
2017-Apr-20 13:58N 48°21' W 123°21'0 0.0
2017-Apr-20 13:28N 48°21' W 123°21'0 0.0
2017-Apr-20 12:58N 48°21' W 123°21'0 0.1
2017-Apr-20 12:28N 48°21' W 123°21'0 0.0
2017-Apr-20 11:58N 48°21' W 123°21'0 0.0
2017-Apr-20 11:28N 48°21' W 123°21'0 0.0
2017-Apr-20 10:58N 48°21' W 123°21'0 0.0
2017-Apr-20 10:28N 48°21' W 123°21'0 0.0
2017-Apr-20 09:58N 48°21' W 123°21'0 0.0
2017-Apr-20 09:28N 48°21' W 123°21'0 0.1
2017-Apr-20 08:58N 48°21' W 123°21'0 0.0
2017-Apr-20 08:28N 48°21' W 123°21'0 0.0
2017-Apr-20 07:58N 48°21' W 123°21'0 0.0
2017-Apr-20 07:28N 48°21' W 123°21'0 0.1
2017-Apr-20 06:58N 48°21' W 123°21'0 0.0
2017-Apr-20 06:25N 48°21' W 123°21'0 0.0
2017-Apr-20 05:58N 48°21' W 123°21'0 0.0
2017-Apr-20 05:28N 48°21' W 123°21'0 0.0
2017-Apr-20 04:58N 48°21' W 123°21'0 0.0
2017-Apr-20 04:28N 48°21' W 123°21'0 0.0
2017-Apr-20 03:58N 48°21' W 123°21'0 0.1
2017-Apr-20 03:28N 48°21' W 123°21'0 0.1
2017-Apr-20 02:58N 48°21' W 123°21'0 0.0
2017-Apr-20 02:28N 48°21' W 123°21'0 0.1
2017-Apr-20 01:55N 48°21' W 123°21'0 0.0
2017-Apr-20 01:28N 48°21' W 123°21'0 0.1
2017-Apr-20 00:58N 48°21' W 123°21'0 0.0
2017-Apr-20 00:28N 48°21' W 123°21'1 1.3
2017-Apr-20 00:00N 48°20' W 123°21'3 5.4
2017-Apr-19 23:30N 48°18' W 123°24'2 3.2
2017-Apr-19 23:01N 48°17' W 123°26'2 3.7
2017-Apr-19 22:31N 48°15' W 123°27'2 4.3
2017-Apr-19 22:00N 48°14' W 123°30'2 4.3
2017-Apr-19 21:31N 48°13' W 123°33'2 4.4
2017-Apr-19 21:00N 48°13' W 123°36'2 4.0
2017-Apr-19 20:30N 48°13' W 123°39'2 3.3
2017-Apr-19 20:00N 48°13' W 123°41'2 3.5
2017-Apr-19 19:29N 48°13' W 123°44'1 2.8
2017-Apr-19 19:00N 48°13' W 123°46'1 3.0
2017-Apr-19 18:31N 48°13' W 123°48'1 2.5
2017-Apr-19 17:59N 48°13' W 123°50'1 2.6
2017-Apr-19 17:30N 48°13' W 123°52'1 2.9
2017-Apr-19 17:00N 48°13' W 123°55'4 8.6
2017-Apr-19 16:30N 48°15' W 124°01'715.0
2017-Apr-19 16:00N 48°18' W 124°11'814.9
2017-Apr-19 15:30N 48°21' W 124°21'714.4
2017-Apr-19 15:00N 48°24' W 124°31'714.5
2017-Apr-19 14:30N 48°28' W 124°40'1413.6
2017-Apr-19 13:30N 48°29' W 125°01'713.3
2017-Apr-19 13:00N 48°29' W 125°11'713.2
2017-Apr-19 12:30N 48°28' W 125°21'713.8
2017-Apr-19 12:00N 48°28' W 125°31'713.9
2017-Apr-19 11:30N 48°27' W 125°42'714.9
2017-Apr-19 11:00N 48°23' W 125°51'814.7
2017-Apr-19 10:27N 48°18' W 126°00'  
Track history (hours):
 
Tides and Currents Weather Stations Pressure Air Temp Water Temp Dewpoint Dewpoint Depression Visibility Wind Speed Wind Dir Waves Ship Positions

Hyundai No.107

Last reported at 2017-Apr-24 10:55 UTC. Time now 2017-May-25 12:16 UTC.
Position N 46°12' W 125°25'.
Warning: this ship's position is 31 days out of date.

Length 184 m; draft 7.6 m.

Type: Cargo ship. MMSI: 636011980.

Date/timePositionNaut miles runAvg speedWind from/ knotsBaromVisibWave heightAir tempDewpointWater temp
2017-Apr-24 10:55N 46°12' W 125°25'614.0
2017-Apr-24 10:30N 46°12' W 125°16'713.8
2017-Apr-24 09:59N 46°12' W 125°06'713.8
2017-Apr-24 09:30N 46°12' W 124°57'713.5
2017-Apr-24 09:00N 46°12' W 124°47'713.4
2017-Apr-24 08:30N 46°12' W 124°37'713.2
2017-Apr-24 08:01N 46°12' W 124°28'713.3
2017-Apr-24 07:30N 46°12' W 124°18'612.1
2017-Apr-24 07:01N 46°12' W 124°09'612.0
2017-Apr-24 06:31N 46°16' W 124°02'713.2
2017-Apr-24 06:00N 46°11' W 123°55'4 8.9
2017-Apr-24 05:30N 46°12' W 123°49'510.6
2017-Apr-24 05:01N 46°15' W 123°42'714.7
2017-Apr-24 04:30N 46°16' W 123°31'812.2
2017-Apr-24 03:53N 46°10' W 123°25'512.6
2017-Apr-24 03:31N 46°09' W 123°18'816.0
2017-Apr-24 03:00N 46°11' W 123°07'714.5
2017-Apr-24 02:30N 46°07' W 122°58'611.4
2017-Apr-24 02:01N 46°03' W 122°53'612.2
2017-Apr-24 01:31N 45°57' W 122°49'713.4
2017-Apr-24 00:59N 45°50' W 122°47'714.3
2017-Apr-24 00:30N 45°44' W 122°46'5 9.7
2017-Apr-24 00:01N 45°39' W 122°45'0 0.1
2017-Apr-23 23:30N 45°39' W 122°45'0 0.0
2017-Apr-23 22:54N 45°39' W 122°45'0 0.0
2017-Apr-23 22:30N 45°39' W 122°45'0 0.0
2017-Apr-23 22:00N 45°39' W 122°45'0 0.0
2017-Apr-23 20:54N 45°39' W 122°45'0 0.0
2017-Apr-23 20:29N 45°39' W 122°45'0 0.0
2017-Apr-23 19:59N 45°39' W 122°45'0 0.0
2017-Apr-23 19:26N 45°39' W 122°45'0 0.0
2017-Apr-23 18:47N 45°39' W 122°45'0 0.0
2017-Apr-23 18:23N 45°39' W 122°45'0 0.0
2017-Apr-23 17:56N 45°39' W 122°45'0 0.0
2017-Apr-23 17:28N 45°39' W 122°45'0 0.0
2017-Apr-23 16:58N 45°39' W 122°45'0 0.0
2017-Apr-23 16:25N 45°39' W 122°45'0 0.0
2017-Apr-23 15:58N 45°39' W 122°45'0 0.0
2017-Apr-23 15:19N 45°39' W 122°45'0 0.0
2017-Apr-23 14:55N 45°39' W 122°45'0 0.0
2017-Apr-23 13:54N 45°39' W 122°45'0 0.0
2017-Apr-23 13:30N 45°39' W 122°45'0 0.0
2017-Apr-23 12:57N 45°39' W 122°45'0 0.0
2017-Apr-23 12:30N 45°39' W 122°45'0 0.0
2017-Apr-23 12:00N 45°39' W 122°45'0 0.0
2017-Apr-23 11:30N 45°39' W 122°45'0 0.0
2017-Apr-23 10:59N 45°39' W 122°45'0 0.0
2017-Apr-23 10:17N 45°39' W 122°45'0 0.0
2017-Apr-23 09:59N 45°39' W 122°45'0 0.0
2017-Apr-23 09:26N 45°39' W 122°45'0 0.0
2017-Apr-23 08:56N 45°39' W 122°45'0 0.0
2017-Apr-23 08:26N 45°39' W 122°45'0 0.0
2017-Apr-23 07:46N 45°39' W 122°45'0 0.0
2017-Apr-23 07:28N 45°39' W 122°45'0 0.0
2017-Apr-23 06:55N 45°39' W 122°45'0 0.0
2017-Apr-23 06:25N 45°39' W 122°45'0 0.0
2017-Apr-23 05:58N 45°39' W 122°45'0 0.0
2017-Apr-23 05:28N 45°39' W 122°45'0 0.0
2017-Apr-23 04:55N 45°39' W 122°45'0 0.0
2017-Apr-23 04:30N 45°39' W 122°45'0 0.0
2017-Apr-23 04:00N 45°39' W 122°45'0 0.0
2017-Apr-23 03:27N 45°39' W 122°45'0 0.0
2017-Apr-23 02:45N 45°39' W 122°45'0 0.0
2017-Apr-23 02:18N 45°39' W 122°45'0 0.0
2017-Apr-23 02:00N 45°39' W 122°45'0 0.0
2017-Apr-23 01:21N 45°39' W 122°45'1 1.8
2017-Apr-23 01:00N 45°39' W 122°46'4 7.9
2017-Apr-23 00:30N 45°43' W 122°46'611.6
2017-Apr-23 00:00N 45°49' W 122°48'510.0
2017-Apr-22 23:30N 45°54' W 122°48'510.4
2017-Apr-22 23:00N 45°59' W 122°50'5 9.9
2017-Apr-22 22:30N 46°03' W 122°53'510.0
2017-Apr-22 22:00N 46°07' W 122°59'510.8
2017-Apr-22 21:30N 46°10' W 123°05'611.1
2017-Apr-22 21:00N 46°10' W 123°13'612.0
2017-Apr-22 20:30N 46°09' W 123°21'5 9.2
2017-Apr-22 20:00N 46°12' W 123°26'510.7
2017-Apr-22 19:30N 46°16' W 123°30'713.3
2017-Apr-22 19:01N 46°15' W 123°40'611.9
2017-Apr-22 18:31N 46°13' W 123°47'4 8.9
2017-Apr-22 18:00N 46°11' W 123°54'713.3
2017-Apr-22 17:30N 46°15' W 124°01'714.2
2017-Apr-22 17:00N 46°13' W 124°11'611.4
2017-Apr-22 16:30N 46°14' W 124°19'612.8
2017-Apr-22 16:01N 46°20' W 124°22'612.8
2017-Apr-22 15:31N 46°25' W 124°27'5 9.5
2017-Apr-22 15:01N 46°30' W 124°30'0 0.7
2017-Apr-22 14:30N 46°29' W 124°30'1 1.1
2017-Apr-22 13:30N 46°28' W 124°31'0 1.0
2017-Apr-22 13:01N 46°28' W 124°32'0 0.9
2017-Apr-22 12:31N 46°28' W 124°32'1 1.4
2017-Apr-22 12:01N 46°27' W 124°33'1 1.2
2017-Apr-22 11:30N 46°27' W 124°33'1 1.3
2017-Apr-22 11:01N 46°26' W 124°33'1 1.4
2017-Apr-22 10:30N 46°25' W 124°33'1 1.5
2017-Apr-22 10:01N 46°25' W 124°33'1 1.5
2017-Apr-22 09:31N 46°24' W 124°33'1 1.7
2017-Apr-22 09:00N 46°23' W 124°33'1 2.1
2017-Apr-22 08:30N 46°22' W 124°34'1 2.3
2017-Apr-22 08:00N 46°21' W 124°34'1 2.9
2017-Apr-22 07:30N 46°20' W 124°35'1 2.9
2017-Apr-22 07:01N 46°18' W 124°35'1 2.9
2017-Apr-22 06:31N 46°17' W 124°35'1 2.7
2017-Apr-22 06:01N 46°15' W 124°35'1 2.6
2017-Apr-22 05:30N 46°14' W 124°35'1 2.4
2017-Apr-22 05:00N 46°13' W 124°35'1 2.3
2017-Apr-22 04:30N 46°12' W 124°35'1 1.9
2017-Apr-22 04:01N 46°11' W 124°35'1 1.3
2017-Apr-22 03:31N 46°10' W 124°34'0 0.6
2017-Apr-22 03:01N 46°10' W 124°34'2 3.9
2017-Apr-22 02:31N 46°12' W 124°34'612.5
2017-Apr-22 02:01N 46°18' W 124°35'714.4
2017-Apr-22 01:31N 46°26' W 124°37'714.8
2017-Apr-22 01:01N 46°31' W 124°44'714.8
2017-Apr-22 00:31N 46°36' W 124°52'714.6
2017-Apr-22 00:01N 46°41' W 125°00'814.7
2017-Apr-21 23:30N 46°48' W 125°03'714.7
2017-Apr-21 23:00N 46°55' W 125°06'714.7
2017-Apr-21 22:30N 47°02' W 125°08'714.7
2017-Apr-21 22:00N 47°09' W 125°11'6213.9
2017-Apr-21 17:31N 48°11' W 125°19'414.5
2017-Apr-21 17:13N 48°15' W 125°16'314.3
2017-Apr-21 17:00N 48°18' W 125°13'714.4
2017-Apr-21 16:30N 48°24' W 125°08'714.3
2017-Apr-21 16:00N 48°30' W 125°03'714.4
2017-Apr-21 15:30N 48°30' W 124°52'714.6
2017-Apr-21 15:00N 48°30' W 124°41'714.7
2017-Apr-21 14:31N 48°27' W 124°31'1515.1
2017-Apr-21 13:30N 48°21' W 124°10'815.9
2017-Apr-21 13:00N 48°18' W 123°59'815.9
2017-Apr-21 12:30N 48°17' W 123°47'815.9
2017-Apr-21 12:00N 48°15' W 123°35'714.0
2017-Apr-21 11:30N 48°20' W 123°27'510.5
2017-Apr-21 11:00N 48°23' W 123°22'713.3
2017-Apr-21 10:31N 48°25' W 123°12'815.6
2017-Apr-21 10:01N 48°33' W 123°13'714.7
2017-Apr-21 09:30N 48°40' W 123°15'612.5
2017-Apr-21 09:01N 48°44' W 123°08'612.6
2017-Apr-21 08:30N 48°49' W 123°01'815.2
2017-Apr-21 08:00N 48°55' W 123°09'814.8
2017-Apr-21 07:30N 49°00' W 123°17'611.4
2017-Apr-21 07:00N 49°05' W 123°20'4 8.8
2017-Apr-21 06:30N 49°08' W 123°15'5 9.8
2017-Apr-21 06:00N 49°07' W 123°08'2 4.7
2017-Apr-21 05:29N 49°08' W 123°04'0 0.0
2017-Apr-21 04:59N 49°08' W 123°04'0 0.0
2017-Apr-21 04:29N 49°08' W 123°04'0 0.0
2017-Apr-21 03:59N 49°08' W 123°04'0 0.0
2017-Apr-21 03:29N 49°08' W 123°04'0 0.0
2017-Apr-21 02:59N 49°08' W 123°04'0 0.0
2017-Apr-21 02:29N 49°08' W 123°04'0 0.0
2017-Apr-21 01:59N 49°08' W 123°04'0 0.0
2017-Apr-21 01:29N 49°08' W 123°04'0 0.0
2017-Apr-21 00:59N 49°08' W 123°04'0 0.0
2017-Apr-21 00:29N 49°08' W 123°04'0 0.0
2017-Apr-20 23:59N 49°08' W 123°04'0 0.0
2017-Apr-20 23:29N 49°08' W 123°04'0 0.0
2017-Apr-20 22:59N 49°08' W 123°04'0 0.0
2017-Apr-20 22:29N 49°08' W 123°04'0 0.0
2017-Apr-20 21:59N 49°08' W 123°04'0 0.3
2017-Apr-20 21:31N 49°08' W 123°04'3 6.9
2017-Apr-20 21:00N 49°07' W 123°09'5 9.7
2017-Apr-20 20:31N 49°07' W 123°16'4 8.4
2017-Apr-20 20:01N 49°03' W 123°20'611.8
2017-Apr-20 19:30N 48°59' W 123°13'714.3
2017-Apr-20 19:00N 48°54' W 123°05'714.3
2017-Apr-20 18:30N 48°48' W 123°00'714.3
2017-Apr-20 18:00N 48°44' W 123°09'612.3
2017-Apr-20 17:30N 48°39' W 123°15'714.7
2017-Apr-20 17:00N 48°32' W 123°12'713.9
2017-Apr-20 16:31N 48°25' W 123°12'612.6
2017-Apr-20 16:00N 48°22' W 123°20'2 3.5
2017-Apr-20 15:30N 48°20' W 123°21'0 0.6
2017-Apr-20 14:58N 48°21' W 123°21'0 0.0
2017-Apr-20 13:58N 48°21' W 123°21'0 0.0
2017-Apr-20 13:28N 48°21' W 123°21'0 0.0
2017-Apr-20 12:58N 48°21' W 123°21'0 0.1
2017-Apr-20 12:28N 48°21' W 123°21'0 0.0
2017-Apr-20 11:58N 48°21' W 123°21'0 0.0
2017-Apr-20 11:28N 48°21' W 123°21'0 0.0
2017-Apr-20 10:58N 48°21' W 123°21'0 0.0
2017-Apr-20 10:28N 48°21' W 123°21'0 0.0
2017-Apr-20 09:58N 48°21' W 123°21'0 0.0
2017-Apr-20 09:28N 48°21' W 123°21'0 0.1
2017-Apr-20 08:58N 48°21' W 123°21'0 0.0
2017-Apr-20 08:28N 48°21' W 123°21'0 0.0
2017-Apr-20 07:58N 48°21' W 123°21'0 0.0
2017-Apr-20 07:28N 48°21' W 123°21'0 0.1
2017-Apr-20 06:58N 48°21' W 123°21'0 0.0
2017-Apr-20 06:25N 48°21' W 123°21'0 0.0
2017-Apr-20 05:58N 48°21' W 123°21'0 0.0
2017-Apr-20 05:28N 48°21' W 123°21'0 0.0
2017-Apr-20 04:58N 48°21' W 123°21'0 0.0
2017-Apr-20 04:28N 48°21' W 123°21'0 0.0
2017-Apr-20 03:58N 48°21' W 123°21'0 0.1
2017-Apr-20 03:28N 48°21' W 123°21'0 0.1
2017-Apr-20 02:58N 48°21' W 123°21'0 0.0
2017-Apr-20 02:28N 48°21' W 123°21'0 0.1
2017-Apr-20 01:55N 48°21' W 123°21'0 0.0
2017-Apr-20 01:28N 48°21' W 123°21'0 0.1
2017-Apr-20 00:58N 48°21' W 123°21'0 0.0
2017-Apr-20 00:28N 48°21' W 123°21'1 1.3
2017-Apr-20 00:00N 48°20' W 123°21'3 5.4
2017-Apr-19 23:30N 48°18' W 123°24'2 3.2
2017-Apr-19 23:01N 48°17' W 123°26'2 3.7
2017-Apr-19 22:31N 48°15' W 123°27'2 4.3
2017-Apr-19 22:00N 48°14' W 123°30'2 4.3
2017-Apr-19 21:31N 48°13' W 123°33'2 4.4
2017-Apr-19 21:00N 48°13' W 123°36'2 4.0
2017-Apr-19 20:30N 48°13' W 123°39'2 3.3
2017-Apr-19 20:00N 48°13' W 123°41'2 3.5
2017-Apr-19 19:29N 48°13' W 123°44'1 2.8
2017-Apr-19 19:00N 48°13' W 123°46'1 3.0
2017-Apr-19 18:31N 48°13' W 123°48'1 2.5
2017-Apr-19 17:59N 48°13' W 123°50'1 2.6
2017-Apr-19 17:30N 48°13' W 123°52'1 2.9
2017-Apr-19 17:00N 48°13' W 123°55'4 8.6
2017-Apr-19 16:30N 48°15' W 124°01'715.0
2017-Apr-19 16:00N 48°18' W 124°11'814.9
2017-Apr-19 15:30N 48°21' W 124°21'714.4
2017-Apr-19 15:00N 48°24' W 124°31'714.5
2017-Apr-19 14:30N 48°28' W 124°40'1413.6
2017-Apr-19 13:30N 48°29' W 125°01'713.3
2017-Apr-19 13:00N 48°29' W 125°11'713.2
2017-Apr-19 12:30N 48°28' W 125°21'713.8
2017-Apr-19 12:00N 48°28' W 125°31'713.9
2017-Apr-19 11:30N 48°27' W 125°42'714.9
2017-Apr-19 11:00N 48°23' W 125°51'814.7
2017-Apr-19 10:27N 48°18' W 126°00'  

Dump ship's entire track history